Phoenicia, NY

11:50 PM EST on February 26, 2015 (GMT -0500)
Woodland Valley | Change Station
CLOSE
Current Station
Personal Weather Station
Location: Phoenicia, NY
Elevation: 1240 ft
Nearby Weather Stations

Elev 1240 ft 42.04 °N, 74.34 °W | Updated 8 seconds ago

Partly Cloudy
Partly Cloudy
11.5 °F
Feels Like 11 °F
N
0.0
Wind Variable Wind from NE

Today
High -- | Low -- °F
--% Chance of Precip.
Yesterday
High -- | Low -- °F
Precip. -- in
6:37 AM 5:43 PM
Waxing Gibbous, 65% visible
Pressure 30.07 in
Visibility 10.0 miles
Clouds Clear
Windchill 11 °F
Dew Point 6 °F
Humidity 78%
Rainfall 0.00 in
Snow Depth Not available.
UV 0 out of 12
Pollen .30 out of 12
Air Quality Not available.
Flu Activity Not available.
METAR KMSV 270435Z AUTO 00000KT 10SM CLR M11/M14 A3007 RMK AO1

More Conditions Fewer Conditions

Pressure 30.07 in
Visibility 10.0 miles
Clouds Clear
Windchill 11 °F
Dew Point 6 °F
Humidity 78%
Rainfall 0.00 in
Snow Depth Not available.
UV 0 out of 12
Pollen .30 out of 12
Air Quality Not available.
Flu Activity Not available.
METAR KMSV 270435Z AUTO 00000KT 10SM CLR M11/M14 A3007 RMK AO1

More Conditions Fewer Conditions

10-Day Weather Forecast

Almanac

Astronomy

Feb. 26, 2015 Rise Set
Actual Time
Civil Twilight
Nautical Twilight
Astronomical Twilight
Moon
Length of Visible Light
Length of Day
Tomorrow will be .
, % of the Moon is Illuminated

Today's Extremes

State Highs State Lows

Community

WunderPhotos

Upload Photos

1,800,632 photos uploaded!

WunderBlogs® & News

Nearby

Air Quality

  Air Quality AQ Index Pollutant
Not available.

Snow Depth

Station Depth Elevation

Earthquake Activity

City Distance Mag. Time & Date
Minimum magnitude displayed is 2.5.

Coastal Water Temperatures

Place Temperature

Nearby Weather Stations